createdAt,value
2017-09-05T00:00:43.514Z,0
2017-09-05T00:01:45.179Z,0
2017-09-05T00:02:46.831Z,0
2017-09-05T00:03:48.488Z,0
2017-09-05T00:04:50.147Z,0
2017-09-05T00:05:52.471Z,0
2017-09-05T00:06:54.154Z,0
2017-09-05T00:07:57.228Z,0
2017-09-05T00:08:58.887Z,0
2017-09-05T00:10:00.543Z,0
2017-09-05T00:11:03.041Z,0
2017-09-05T00:12:04.692Z,0
2017-09-05T00:13:07.062Z,0
2017-09-05T00:14:08.713Z,0
2017-09-05T00:15:10.375Z,0
2017-09-05T00:16:12.905Z,0
2017-09-05T00:17:14.551Z,0
2017-09-05T00:18:16.212Z,0
2017-09-05T00:19:17.874Z,0
2017-09-05T00:20:19.529Z,0
2017-09-05T00:21:21.185Z,0
2017-09-05T00:22:22.844Z,0
2017-09-05T00:23:24.501Z,0
2017-09-05T00:24:27.116Z,0
2017-09-05T00:25:28.780Z,0
2017-09-05T00:26:30.433Z,0
2017-09-05T00:27:32.088Z,0
2017-09-05T00:28:33.739Z,0
2017-09-05T00:29:35.394Z,0
2017-09-05T00:30:37.997Z,0
2017-09-05T00:31:39.647Z,0
2017-09-05T00:32:41.314Z,0
2017-09-05T00:33:42.960Z,0
2017-09-05T00:34:44.619Z,0
2017-09-05T00:35:46.270Z,0
2017-09-05T00:36:47.917Z,0
2017-09-05T00:37:49.606Z,0
2017-09-05T00:38:51.239Z,0
2017-09-05T00:39:52.907Z,0
2017-09-05T00:40:54.562Z,0
2017-09-05T00:41:56.811Z,0
2017-09-05T00:42:58.097Z,0
2017-09-05T00:43:59.748Z,0
2017-09-05T00:45:03.272Z,0
2017-09-05T00:46:04.928Z,0
2017-09-05T00:47:06.583Z,0
2017-09-05T00:48:08.239Z,0
2017-09-05T00:49:09.898Z,0
2017-09-05T00:50:12.249Z,0
2017-09-05T00:51:13.903Z,0
2017-09-05T00:52:16.279Z,0
2017-09-05T00:53:17.931Z,0
2017-09-05T00:54:19.593Z,0
2017-09-05T00:55:21.250Z,0
2017-09-05T00:56:22.912Z,0
2017-09-05T00:57:24.572Z,0
2017-09-05T00:58:26.227Z,0
2017-09-05T00:59:27.882Z,0
2017-09-05T01:00:29.533Z,0
2017-09-05T01:01:31.817Z,0
2017-09-05T01:02:32.790Z,0
2017-09-05T01:03:34.448Z,0
2017-09-05T01:04:36.668Z,0
2017-09-05T01:05:38.318Z,0
2017-09-05T01:06:39.972Z,0
2017-09-05T01:07:42.552Z,0
2017-09-05T01:08:44.994Z,0
2017-09-05T01:09:46.642Z,0
2017-09-05T01:10:48.298Z,0
2017-09-05T01:11:49.950Z,0
2017-09-05T01:12:52.257Z,0
2017-09-05T01:13:53.906Z,0
2017-09-05T01:14:55.567Z,0
2017-09-05T01:15:57.224Z,0
2017-09-05T01:16:58.876Z,0
2017-09-05T01:18:01.275Z,0
2017-09-05T01:19:02.931Z,0
2017-09-05T01:20:04.592Z,0
2017-09-05T01:21:06.263Z,0
2017-09-05T01:22:07.916Z,0
2017-09-05T01:23:09.577Z,0
2017-09-05T01:24:11.242Z,0
2017-09-05T01:25:12.892Z,0
2017-09-05T01:26:14.550Z,0
2017-09-05T01:27:16.208Z,0
2017-09-05T01:28:17.859Z,0
2017-09-05T01:29:19.513Z,0
2017-09-05T01:30:21.181Z,0
2017-09-05T01:31:22.841Z,0
2017-09-05T01:32:24.490Z,0
2017-09-05T01:33:26.150Z,0
2017-09-05T01:34:27.804Z,0
2017-09-05T01:35:29.460Z,0
2017-09-05T01:36:31.120Z,0
2017-09-05T01:37:32.784Z,0
2017-09-05T01:38:34.440Z,0
2017-09-05T01:39:36.091Z,0
2017-09-05T01:40:37.742Z,0
2017-09-05T01:41:39.398Z,0
2017-09-05T01:42:41.056Z,0
2017-09-05T01:43:42.712Z,0
2017-09-05T01:44:45.947Z,0
2017-09-05T01:45:50.363Z,0
2017-09-05T01:46:52.639Z,0
2017-09-05T01:47:54.305Z,0
2017-09-05T01:48:55.960Z,0
2017-09-05T01:49:57.613Z,0
2017-09-05T01:50:59.265Z,0
2017-09-05T01:52:00.926Z,0
2017-09-05T01:53:02.584Z,0
2017-09-05T01:54:04.237Z,0
2017-09-05T01:55:06.576Z,0
2017-09-05T01:56:08.235Z,0
2017-09-05T02:02:02.276Z,0
2017-09-05T02:03:03.928Z,0
2017-09-05T02:04:05.575Z,0
2017-09-05T02:05:07.230Z,0
2017-09-05T02:06:08.885Z,0
2017-09-05T02:07:10.544Z,0
2017-09-05T02:08:12.944Z,0
2017-09-05T02:09:14.600Z,0
2017-09-05T02:10:16.249Z,0
2017-09-05T02:11:17.900Z,0
2017-09-05T02:12:19.551Z,0
2017-09-05T02:13:21.201Z,0
2017-09-05T02:14:23.494Z,0
2017-09-05T02:15:25.151Z,0
2017-09-05T02:16:27.325Z,0
2017-09-05T02:17:28.971Z,0
2017-09-05T02:18:30.623Z,0
2017-09-05T02:19:33.145Z,0
2017-09-05T02:20:34.802Z,0
2017-09-05T02:21:36.463Z,0
2017-09-05T02:22:38.110Z,0
2017-09-05T02:23:39.765Z,0
2017-09-05T02:24:41.425Z,0
2017-09-05T02:25:43.092Z,0
2017-09-05T02:26:44.743Z,0
2017-09-05T02:27:46.397Z,0
2017-09-05T02:28:48.056Z,0
2017-09-05T02:29:49.714Z,0
2017-09-05T02:30:52.211Z,0
2017-09-05T02:31:53.873Z,0
2017-09-05T02:32:55.519Z,0
2017-09-05T02:33:57.179Z,0
2017-09-05T02:34:58.835Z,0
2017-09-05T02:36:00.507Z,0
2017-09-05T02:37:02.182Z,0
2017-09-05T02:38:04.444Z,0
2017-09-05T02:39:06.101Z,0
2017-09-05T02:40:07.768Z,0
2017-09-05T02:41:09.414Z,0
2017-09-05T02:42:11.071Z,0
2017-09-05T02:43:12.732Z,0
2017-09-05T02:44:14.386Z,0
2017-09-05T02:45:16.043Z,0
2017-09-05T02:46:17.692Z,0
2017-09-05T02:47:19.347Z,0
2017-09-05T02:48:21.006Z,0
2017-09-05T02:49:22.655Z,0
2017-09-05T02:50:24.309Z,0
2017-09-05T02:51:25.961Z,0
2017-09-05T02:52:27.618Z,0
2017-09-05T02:53:29.272Z,0
2017-09-05T02:54:32.687Z,0
2017-09-05T02:55:34.340Z,0
2017-09-05T02:56:35.990Z,0
2017-09-05T02:57:38.187Z,0
2017-09-05T02:58:39.837Z,0
2017-09-05T02:59:41.490Z,0
2017-09-05T03:00:43.640Z,0
2017-09-05T03:01:45.295Z,0
2017-09-05T03:02:46.959Z,0
2017-09-05T03:03:49.282Z,0
2017-09-05T03:04:50.931Z,0
2017-09-05T03:05:52.585Z,0
2017-09-05T03:06:54.244Z,0
2017-09-05T03:07:55.908Z,0
2017-09-05T03:08:57.561Z,0
2017-09-05T03:09:59.216Z,0
2017-09-05T03:11:01.347Z,0
2017-09-05T03:12:03.001Z,0
2017-09-05T03:13:04.652Z,0
2017-09-05T03:14:06.926Z,0
2017-09-05T03:15:08.572Z,0
2017-09-05T03:16:11.124Z,0
2017-09-05T03:17:13.410Z,0
2017-09-05T03:18:15.068Z,0
2017-09-05T03:19:16.724Z,0
2017-09-05T03:20:18.387Z,0
2017-09-05T03:21:20.048Z,0
2017-09-05T03:22:21.702Z,0
2017-09-05T03:23:23.357Z,0
2017-09-05T03:24:25.009Z,0
2017-09-05T03:25:26.662Z,0
2017-09-05T03:26:28.317Z,0
2017-09-05T03:27:29.972Z,0
2017-09-05T03:28:31.631Z,0
2017-09-05T03:29:33.288Z,0
2017-09-05T03:30:34.951Z,0
2017-09-05T03:31:37.331Z,0
2017-09-05T03:32:38.993Z,0
2017-09-05T03:33:40.651Z,0
2017-09-05T03:34:42.316Z,0
2017-09-05T03:35:43.974Z,0
2017-09-05T03:36:46.523Z,0
2017-09-05T03:37:48.178Z,0
2017-09-05T03:38:49.850Z,0
2017-09-05T03:39:51.502Z,0
2017-09-05T03:40:54.648Z,0
2017-09-05T03:41:57.219Z,0
2017-09-05T03:42:58.872Z,0
2017-09-05T03:44:01.419Z,0
2017-09-05T03:45:03.082Z,0
2017-09-05T03:46:04.729Z,0
2017-09-05T03:47:06.381Z,0
2017-09-05T03:48:08.044Z,0
2017-09-05T03:49:09.697Z,0
2017-09-05T03:50:11.351Z,0
2017-09-05T03:51:13.007Z,0
2017-09-05T03:52:14.664Z,0
2017-09-05T03:53:17.222Z,0
2017-09-05T03:54:18.879Z,0
2017-09-05T03:55:20.535Z,0
2017-09-05T03:56:22.183Z,0
2017-09-05T03:57:23.839Z,0
2017-09-05T03:58:25.488Z,0
2017-09-05T03:59:27.144Z,0
2017-09-05T04:00:28.799Z,0
2017-09-05T04:01:31.233Z,0
2017-09-05T04:02:32.894Z,0
2017-09-05T04:03:34.552Z,0
2017-09-05T04:04:36.766Z,0
2017-09-05T04:05:38.419Z,0
2017-09-05T04:06:40.086Z,0
2017-09-05T04:07:41.735Z,0
2017-09-05T04:08:43.395Z,0
2017-09-05T04:09:45.053Z,0
2017-09-05T04:10:46.706Z,0
2017-09-05T04:11:48.356Z,0
2017-09-05T04:12:50.006Z,0
2017-09-05T04:13:51.657Z,0
2017-09-05T04:14:53.321Z,0
2017-09-05T04:15:54.978Z,0
2017-09-05T04:16:56.632Z,0
2017-09-05T04:17:58.289Z,0
2017-09-05T04:18:59.941Z,0
2017-09-05T04:20:01.600Z,0
2017-09-05T04:21:03.256Z,0
2017-09-05T04:22:04.907Z,0
2017-09-05T04:23:06.564Z,0
2017-09-05T04:24:08.788Z,0
2017-09-05T04:25:12.128Z,0
2017-09-05T04:26:16.214Z,0
2017-09-05T04:27:19.219Z,0
2017-09-05T04:28:22.622Z,0
2017-09-05T04:29:25.259Z,0
2017-09-05T04:30:28.352Z,0
2017-09-05T04:31:31.473Z,0
2017-09-05T04:32:33.829Z,0
2017-09-05T04:33:36.425Z,0
2017-09-05T04:34:38.082Z,0
2017-09-05T04:35:39.737Z,0
2017-09-05T04:36:41.391Z,0
2017-09-05T04:37:43.045Z,0
2017-09-05T04:38:46.194Z,0
2017-09-05T04:39:47.859Z,0
2017-09-05T04:40:50.333Z,0
2017-09-05T04:41:52.022Z,5
2017-09-05T04:42:53.683Z,5
2017-09-05T04:43:55.343Z,5
2017-09-05T04:44:57.582Z,5
2017-09-05T04:45:58.601Z,5
2017-09-05T04:47:01.077Z,5
2017-09-05T04:48:01.870Z,5
2017-09-05T04:49:03.527Z,5
2017-09-05T04:50:05.188Z,5
2017-09-05T04:51:08.491Z,5
2017-09-05T04:52:11.068Z,10
2017-09-05T04:53:12.729Z,10
2017-09-05T04:54:14.388Z,10
2017-09-05T04:55:16.541Z,15
2017-09-05T04:56:18.206Z,15
2017-09-05T04:57:20.458Z,15
2017-09-05T04:58:23.287Z,15
2017-09-05T04:59:24.947Z,20
2017-09-05T05:00:26.607Z,20
2017-09-05T05:01:28.277Z,20
2017-09-05T05:02:29.937Z,20
2017-09-05T05:03:31.595Z,20
2017-09-05T05:04:33.253Z,25
2017-09-05T05:05:34.907Z,25
2017-09-05T05:06:36.561Z,30
2017-09-05T05:07:38.221Z,25
2017-09-05T05:08:39.887Z,25
2017-09-05T05:09:44.717Z,25
2017-09-05T05:10:46.936Z,25
2017-09-05T05:11:48.599Z,30
2017-09-05T05:12:50.259Z,30
2017-09-05T05:13:51.921Z,35
2017-09-05T05:14:54.392Z,35
2017-09-05T05:15:56.871Z,35
2017-09-05T05:16:58.524Z,35
2017-09-05T05:18:01.082Z,35
2017-09-05T05:19:02.646Z,35
2017-09-05T05:20:05.941Z,40
2017-09-05T05:21:07.625Z,40
2017-09-05T05:22:09.276Z,45
2017-09-05T05:23:12.638Z,50
2017-09-05T05:24:16.658Z,60
2017-09-05T05:25:18.333Z,65
2017-09-05T05:26:20.674Z,70
2017-09-05T05:27:22.333Z,75
2017-09-05T05:28:24.880Z,80
2017-09-05T05:29:27.779Z,80
2017-09-05T05:30:30.085Z,75
2017-09-05T05:31:31.581Z,70
2017-09-05T05:32:32.708Z,70
2017-09-05T05:33:34.347Z,70
2017-09-05T05:34:39.139Z,70
2017-09-05T05:35:40.802Z,65
2017-09-05T05:36:43.371Z,65
2017-09-05T05:37:45.041Z,70
2017-09-05T05:38:47.241Z,70
2017-09-05T05:39:48.897Z,75
2017-09-05T05:40:50.555Z,80
2017-09-05T05:41:52.221Z,85
2017-09-05T05:42:55.225Z,95
2017-09-05T05:43:58.222Z,105
2017-09-05T05:44:59.879Z,110
2017-09-05T05:46:02.376Z,115
2017-09-05T05:47:04.041Z,125
2017-09-05T05:48:05.705Z,130
2017-09-05T05:49:07.366Z,130
2017-09-05T05:50:09.055Z,130
2017-09-05T05:51:11.586Z,130
2017-09-05T05:52:12.326Z,135
2017-09-05T05:53:13.996Z,135
2017-09-05T05:54:17.049Z,140
2017-09-05T05:55:18.708Z,145
2017-09-05T06:01:34.946Z,180
2017-09-05T06:02:37.532Z,180
2017-09-05T06:03:40.106Z,180
2017-09-05T06:04:41.793Z,170
2017-09-05T06:05:43.454Z,170
2017-09-05T06:06:45.106Z,170
2017-09-05T06:07:46.773Z,175
2017-09-05T06:08:48.432Z,185
2017-09-05T06:09:50.092Z,190
2017-09-05T06:10:54.267Z,195
2017-09-05T06:11:54.922Z,190
2017-09-05T06:12:59.377Z,190
2017-09-05T06:14:01.073Z,185
2017-09-05T06:15:02.786Z,180
2017-09-05T06:16:04.455Z,180
2017-09-05T06:17:06.975Z,180
2017-09-05T06:18:08.653Z,180
2017-09-05T06:19:10.331Z,195
2017-09-05T06:20:12.035Z,200
2017-09-05T06:21:13.700Z,210
2017-09-05T06:22:16.382Z,200
2017-09-05T06:23:18.053Z,180
2017-09-05T06:24:19.709Z,155
2017-09-05T06:25:21.868Z,145
2017-09-05T06:26:24.197Z,160
2017-09-05T06:27:26.695Z,175
2017-09-05T06:28:29.588Z,190
2017-09-05T06:29:31.806Z,240
2017-09-05T06:30:33.468Z,285
2017-09-05T09:45:40.694Z,980
2017-09-05T09:46:43.050Z,930
2017-09-05T09:47:44.716Z,940
2017-09-05T09:48:46.475Z,1020
2017-09-05T09:49:49.091Z,1110
2017-09-05T09:50:50.899Z,1170
2017-09-05T09:51:52.573Z,1345
2017-09-05T09:52:54.247Z,1425
2017-09-05T09:53:56.578Z,1900
2017-09-05T09:54:59.322Z,2730
2017-09-05T10:00:58.630Z,2365
2017-09-05T10:02:00.328Z,1070
2017-09-05T10:03:52.816Z,1040
2017-09-05T10:04:54.527Z,2295
2017-09-05T10:05:57.561Z,1245
2017-09-05T10:06:59.236Z,1355
2017-09-05T10:08:00.906Z,970
2017-09-05T10:09:03.429Z,725
2017-09-05T10:10:05.963Z,635
2017-09-05T10:11:07.624Z,710
2017-09-05T10:12:09.301Z,830
2017-09-05T10:13:10.981Z,1070
2017-09-05T10:14:13.410Z,980
2017-09-05T10:15:15.755Z,1065
2017-09-05T10:16:17.437Z,1000
2017-09-05T10:17:19.107Z,845
2017-09-05T10:18:20.779Z,710
2017-09-05T10:19:22.449Z,575
2017-09-05T10:20:24.942Z,505
2017-09-05T10:21:27.253Z,475
2017-09-05T10:22:28.920Z,465
2017-09-05T10:23:30.595Z,510
2017-09-05T10:24:32.385Z,625
2017-09-05T10:25:34.066Z,795
2017-09-05T10:26:35.742Z,1115
2017-09-05T10:27:37.410Z,975
2017-09-05T10:28:39.090Z,870
2017-09-05T10:29:41.259Z,820
2017-09-05T10:30:43.308Z,820
2017-09-05T10:31:47.232Z,805
2017-09-05T10:32:48.899Z,785
2017-09-05T10:33:51.710Z,740
2017-09-05T10:34:53.372Z,730
2017-09-05T10:35:55.557Z,790
2017-09-05T10:36:57.226Z,1280
2017-09-05T10:37:58.914Z,1285
2017-09-05T10:39:00.591Z,1670
2017-09-05T10:40:02.262Z,2290
2017-09-05T10:41:03.934Z,2210
2017-09-05T10:42:06.162Z,1495
2017-09-05T10:43:08.542Z,1515
2017-09-05T10:44:10.725Z,1360
2017-09-05T10:45:12.412Z,1655
2017-09-05T10:46:14.088Z,2630
2017-09-05T10:47:16.254Z,1345
2017-09-05T10:48:17.924Z,1475
2017-09-05T10:49:19.589Z,1175
2017-09-05T10:50:21.275Z,965
2017-09-05T10:51:22.950Z,840
2017-09-05T10:52:25.291Z,725
2017-09-05T10:53:27.011Z,590
2017-09-05T10:54:28.686Z,490
2017-09-05T10:55:30.357Z,420
2017-09-05T10:56:32.042Z,360
2017-09-05T10:57:33.792Z,315
2017-09-05T10:58:36.509Z,285
2017-09-05T10:59:38.173Z,265
2017-09-05T11:00:39.847Z,250
2017-09-05T11:01:41.581Z,250
2017-09-05T11:02:44.135Z,280
2017-09-05T11:03:45.861Z,355
2017-09-05T11:04:48.051Z,440
2017-09-05T11:05:50.230Z,535
2017-09-05T11:06:52.446Z,670
2017-09-05T11:07:54.119Z,845
2017-09-05T11:08:57.456Z,980
2017-09-05T11:09:58.298Z,1115
2017-09-05T11:11:00.956Z,1300
2017-09-05T11:12:01.601Z,1385
2017-09-05T11:13:03.277Z,1400
2017-09-05T11:14:05.706Z,1185
2017-09-05T11:15:07.380Z,1160
2017-09-05T11:16:09.983Z,1115
2017-09-05T11:17:11.666Z,975
2017-09-05T11:18:14.041Z,805
2017-09-05T11:19:16.780Z,655
2017-09-05T11:20:18.448Z,585
2017-09-05T11:21:20.121Z,605
2017-09-05T11:22:21.793Z,675
2017-09-05T11:23:24.137Z,755
2017-09-05T11:24:25.911Z,840
2017-09-05T11:25:27.596Z,1005
2017-09-05T11:26:29.283Z,990
2017-09-05T11:27:30.934Z,985
2017-09-05T11:28:32.607Z,1015
2017-09-05T11:29:34.290Z,1065
2017-09-05T11:30:36.510Z,1170
2017-09-05T11:31:38.174Z,1235
2017-09-05T11:32:39.847Z,1250
2017-09-05T11:33:41.519Z,1430
2017-09-05T11:34:43.190Z,1255
2017-09-05T11:35:44.861Z,1600
2017-09-05T11:36:46.561Z,1505
2017-09-05T11:37:48.273Z,2940
2017-09-05T11:38:49.952Z,3215
2017-09-05T11:39:51.644Z,2195
2017-09-05T11:40:54.054Z,2620
2017-09-05T11:41:55.723Z,3335
2017-09-05T11:42:58.209Z,3910
2017-09-05T11:43:59.880Z,3650
2017-09-05T11:45:01.568Z,1315
2017-09-05T11:46:04.557Z,2475
2017-09-05T11:47:06.716Z,1535
2017-09-05T11:48:08.394Z,1795
2017-09-05T11:49:10.568Z,1145
2017-09-05T11:50:12.248Z,1190
2017-09-05T11:51:14.863Z,1065
2017-09-05T11:52:17.973Z,1140
2017-09-05T11:53:18.761Z,1120
2017-09-05T11:54:20.968Z,1195
2017-09-05T11:55:22.647Z,1635
2017-09-05T11:56:24.323Z,1255
2017-09-05T11:57:26.630Z,1170
2017-09-05T11:58:29.251Z,1145
2017-09-05T11:59:32.408Z,1065
2017-09-05T12:00:34.082Z,1095
2017-09-05T12:01:35.805Z,1450
2017-09-05T12:02:37.482Z,1060
2017-09-05T12:03:39.160Z,1490
2017-09-05T12:04:40.975Z,3615
2017-09-05T12:05:42.708Z,3760
2017-09-05T12:06:44.390Z,3685
2017-09-05T12:07:46.069Z,1315
2017-09-05T12:08:47.757Z,1700
2017-09-05T12:09:49.433Z,1300
2017-09-05T12:10:51.099Z,985
2017-09-05T12:11:52.793Z,965
2017-09-05T12:12:55.100Z,905
2017-09-05T12:13:57.760Z,755
2017-09-05T12:14:59.450Z,665
2017-09-05T12:16:01.158Z,650
2017-09-05T12:17:02.808Z,620
2017-09-05T12:18:04.481Z,585
2017-09-05T12:19:06.638Z,555
2017-09-05T12:20:09.148Z,500
2017-09-05T12:21:10.838Z,445
2017-09-05T12:22:12.512Z,405
2017-09-05T12:23:14.183Z,365
2017-09-05T12:24:16.596Z,330
2017-09-05T12:25:18.272Z,310
2017-09-05T12:26:19.949Z,295
2017-09-05T12:27:21.745Z,290
2017-09-05T12:28:23.425Z,295
2017-09-05T12:29:26.086Z,300
2017-09-05T12:30:28.569Z,305
2017-09-05T12:31:30.237Z,320
2017-09-05T12:32:32.794Z,345
2017-09-05T12:33:34.479Z,380
2017-09-05T12:34:36.707Z,425
2017-09-05T12:35:38.375Z,475
2017-09-05T12:36:41.018Z,555
2017-09-05T12:37:42.683Z,640
2017-09-05T12:38:44.383Z,735
2017-09-05T12:39:46.051Z,835
2017-09-05T12:40:49.042Z,900
2017-09-05T12:41:51.698Z,995
2017-09-05T12:42:54.350Z,1075
2017-09-05T12:43:56.845Z,1150
2017-09-05T12:44:58.526Z,1785
2017-09-05T12:46:00.749Z,3515
2017-09-05T12:47:02.476Z,2335
2017-09-05T12:48:05.481Z,1300
2017-09-05T12:49:06.535Z,935
2017-09-05T12:50:09.688Z,750
2017-09-05T12:51:12.313Z,650
2017-09-05T12:52:13.977Z,620
2017-09-05T12:53:16.610Z,625
2017-09-05T12:54:18.318Z,625
2017-09-05T12:55:21.126Z,615
2017-09-05T12:56:22.789Z,610
2017-09-05T12:57:24.502Z,610
2017-09-05T12:58:26.174Z,620
2017-09-05T12:59:28.815Z,615
2017-09-05T13:00:30.494Z,585
2017-09-05T13:01:32.875Z,545
2017-09-05T13:02:34.549Z,495
2017-09-05T13:03:36.973Z,440
2017-09-05T13:04:38.680Z,390
2017-09-05T13:05:40.376Z,350
2017-09-05T13:06:42.048Z,320
2017-09-05T13:07:43.805Z,310
2017-09-05T13:08:45.608Z,325
2017-09-05T13:09:47.099Z,325
2017-09-05T13:10:48.780Z,295
2017-09-05T13:11:50.449Z,260
2017-09-05T13:12:52.133Z,245
2017-09-05T13:13:53.810Z,235
2017-09-05T13:14:56.321Z,225
2017-09-05T13:15:58.004Z,200
2017-09-05T13:16:59.666Z,185
2017-09-05T13:18:01.344Z,180
2017-09-05T13:19:03.651Z,170
2017-09-05T13:20:06.293Z,160
2017-09-05T13:21:08.531Z,150
2017-09-05T13:22:11.868Z,160
2017-09-05T13:23:13.547Z,195
2017-09-05T13:24:15.219Z,240
2017-09-05T13:25:16.902Z,270
2017-09-05T13:26:18.589Z,285
2017-09-05T13:27:20.254Z,300
2017-09-05T13:28:21.923Z,315
2017-09-05T13:29:23.585Z,320
2017-09-05T13:30:26.332Z,320
2017-09-05T13:31:28.008Z,320
2017-09-05T13:32:29.672Z,325
2017-09-05T13:33:31.343Z,335
2017-09-05T13:34:33.803Z,325
2017-09-05T13:35:35.479Z,325
2017-09-05T13:36:38.826Z,325
2017-09-05T13:37:41.494Z,335
2017-09-05T13:38:44.147Z,340
2017-09-05T13:39:48.186Z,350
2017-09-05T13:40:50.656Z,365
2017-09-05T13:41:52.320Z,385
2017-09-05T13:42:53.988Z,410
2017-09-05T13:43:55.662Z,445
2017-09-05T13:44:57.324Z,485
2017-09-05T13:45:58.994Z,505
2017-09-05T13:47:02.443Z,510
2017-09-05T13:48:04.994Z,505
2017-09-05T13:49:05.739Z,490
2017-09-05T13:50:08.105Z,510
2017-09-05T13:51:10.782Z,580
2017-09-05T13:52:12.452Z,620
2017-09-05T13:53:15.842Z,595
2017-09-05T13:54:17.516Z,530
2017-09-05T13:55:19.183Z,465
2017-09-05T14:01:47.280Z,475
2017-09-05T14:02:49.623Z,500
2017-09-05T14:03:51.341Z,565
2017-09-05T14:04:52.963Z,650
2017-09-05T14:05:56.399Z,740
2017-09-05T14:06:58.073Z,800
2017-09-05T14:07:59.735Z,915
2017-09-05T14:09:01.428Z,1020
2017-09-05T14:10:03.101Z,1165
2017-09-05T14:11:05.608Z,1140
2017-09-05T14:12:07.275Z,1120
2017-09-05T14:13:08.942Z,1040
2017-09-05T14:14:10.617Z,985
2017-09-05T14:15:12.310Z,1015
2017-09-05T14:16:13.980Z,1135
2017-09-05T14:17:15.653Z,1060
2017-09-05T14:18:17.329Z,915
2017-09-05T14:19:18.995Z,800
2017-09-05T14:20:22.193Z,765
2017-09-05T14:21:23.860Z,750
2017-09-05T14:22:25.536Z,785
2017-09-05T14:23:27.214Z,765
2017-09-05T14:24:29.526Z,735
2017-09-05T14:25:30.491Z,735
2017-09-05T14:26:32.168Z,770
2017-09-05T14:27:33.831Z,850
2017-09-05T14:28:35.503Z,910
2017-09-05T14:29:38.131Z,975
2017-09-05T14:30:39.801Z,1060
2017-09-05T14:31:41.484Z,1105
2017-09-05T14:32:43.154Z,1075
2017-09-05T14:33:44.835Z,1000
2017-09-05T14:34:46.516Z,935
2017-09-05T14:35:48.180Z,910
2017-09-05T14:36:49.850Z,900
2017-09-05T14:37:51.516Z,880
2017-09-05T14:38:53.196Z,855
2017-09-05T14:39:54.867Z,830
2017-09-05T14:40:57.085Z,805
2017-09-05T14:41:59.311Z,785
2017-09-05T14:43:01.530Z,770
2017-09-05T14:44:02.596Z,760
2017-09-05T14:45:04.268Z,730
2017-09-05T14:46:05.939Z,695
2017-09-05T14:47:07.610Z,680
2017-09-05T14:48:09.281Z,645
2017-09-05T14:49:10.948Z,585
2017-09-05T14:50:12.621Z,540
2017-09-05T14:51:14.875Z,515
2017-09-05T14:52:17.458Z,505
2017-09-05T14:53:19.765Z,475
2017-09-05T14:54:22.796Z,420
2017-09-05T14:55:25.296Z,350
2017-09-05T14:56:26.965Z,300
2017-09-05T14:57:28.632Z,270
2017-09-05T14:58:30.298Z,250
2017-09-05T14:59:32.505Z,225
2017-09-05T15:00:35.754Z,210
2017-09-05T15:01:37.433Z,200
2017-09-05T15:02:39.095Z,195
2017-09-05T15:03:40.765Z,205
2017-09-05T15:04:42.982Z,215
2017-09-05T15:05:44.654Z,220
2017-09-05T15:06:46.322Z,225
2017-09-05T15:07:47.992Z,230
2017-09-05T15:08:49.666Z,235
2017-09-05T15:09:51.331Z,235
2017-09-05T15:10:53.731Z,240
2017-09-05T15:11:55.398Z,245
2017-09-05T15:12:57.075Z,260
2017-09-05T15:13:58.826Z,280
2017-09-05T15:15:01.116Z,280
2017-09-05T15:16:04.080Z,260
2017-09-05T15:17:06.326Z,240
2017-09-05T15:18:09.672Z,230
2017-09-05T15:19:11.332Z,225
2017-09-05T15:20:13.090Z,235
2017-09-05T15:21:14.759Z,250
2017-09-05T15:22:16.974Z,270
2017-09-05T15:23:18.630Z,275
2017-09-05T15:24:20.299Z,270
2017-09-05T15:25:23.711Z,265
2017-09-05T15:26:26.362Z,265
2017-09-05T15:27:28.034Z,265
2017-09-05T15:28:29.705Z,265
2017-09-05T15:29:31.366Z,260
2017-09-05T15:30:33.059Z,255
2017-09-05T15:31:34.723Z,220
2017-09-05T15:32:37.352Z,195
2017-09-05T15:33:39.019Z,175
2017-09-05T15:34:41.664Z,165
2017-09-05T15:35:43.329Z,165
2017-09-05T15:36:45.085Z,165
2017-09-05T15:37:46.779Z,170
2017-09-05T15:38:48.466Z,175
2017-09-05T15:39:50.140Z,185
2017-09-05T15:40:52.718Z,200
2017-09-05T15:41:54.414Z,215
2017-09-05T15:42:56.060Z,210
2017-09-05T15:43:57.735Z,195
2017-09-05T15:45:01.099Z,200
2017-09-05T15:46:02.764Z,210
2017-09-05T15:47:04.438Z,205
2017-09-05T15:48:07.511Z,200
2017-09-05T15:49:09.178Z,190
2017-09-05T15:50:11.824Z,185
2017-09-05T15:51:14.272Z,185
2017-09-05T15:52:17.640Z,180
2017-09-05T15:53:19.304Z,175
2017-09-05T15:54:22.064Z,165
2017-09-05T15:55:24.476Z,160
2017-09-05T15:56:27.097Z,155
2017-09-05T15:57:28.764Z,160
2017-09-05T15:58:31.408Z,175
2017-09-05T15:59:33.075Z,195
2017-09-05T16:00:34.736Z,235
2017-09-05T16:01:36.928Z,265
2017-09-05T16:02:38.598Z,285
2017-09-05T16:03:40.273Z,295
2017-09-05T16:04:41.946Z,300
2017-09-05T16:05:43.612Z,325
2017-09-05T16:06:45.345Z,370
2017-09-05T16:07:47.053Z,405
2017-09-05T16:08:49.382Z,425
2017-09-05T16:09:51.858Z,420
2017-09-05T16:10:53.534Z,400
2017-09-05T16:11:55.201Z,385
2017-09-05T16:12:57.737Z,365
2017-09-05T16:14:00.315Z,335
2017-09-05T16:15:01.992Z,300
2017-09-05T16:16:03.662Z,280
2017-09-05T16:17:05.338Z,265
2017-09-05T16:18:07.036Z,255
2017-09-05T16:19:08.730Z,240
2017-09-05T16:20:11.314Z,230
2017-09-05T16:21:13.007Z,230
2017-09-05T16:22:14.679Z,225
2017-09-05T16:23:17.690Z,225
2017-09-05T16:24:21.160Z,220
2017-09-05T16:25:22.835Z,205
2017-09-05T16:26:25.111Z,200
2017-09-05T16:27:27.672Z,200
2017-09-05T16:28:29.433Z,200
2017-09-05T16:29:31.095Z,180
2017-09-05T16:30:32.756Z,170
2017-09-05T16:31:34.415Z,190
2017-09-05T16:32:36.110Z,205
2017-09-05T16:33:37.783Z,210
2017-09-05T16:34:39.470Z,220
2017-09-05T16:35:41.773Z,220
2017-09-05T16:36:43.442Z,215
2017-09-05T16:37:46.058Z,215
2017-09-05T16:38:47.307Z,215
2017-09-05T16:39:49.445Z,210
2017-09-05T16:40:53.407Z,200
2017-09-05T16:41:55.070Z,185
2017-09-05T16:42:57.682Z,170
2017-09-05T16:43:59.347Z,145
2017-09-05T16:45:01.023Z,115
2017-09-05T16:46:03.221Z,90
2017-09-05T16:47:05.693Z,80
2017-09-05T16:48:07.363Z,75
2017-09-05T16:49:09.031Z,75
2017-09-05T16:50:10.695Z,70
2017-09-05T16:51:12.356Z,65
2017-09-05T16:52:15.557Z,60
2017-09-05T16:53:17.818Z,60
2017-09-05T16:54:19.498Z,55
2017-09-05T16:55:21.167Z,60
2017-09-05T16:56:23.758Z,60
2017-09-05T16:57:26.414Z,65
2017-09-05T16:58:28.078Z,70
2017-09-05T16:59:29.743Z,70
2017-09-05T17:00:32.182Z,75
2017-09-05T17:01:34.835Z,75
2017-09-05T17:02:36.512Z,70
2017-09-05T17:03:38.193Z,60
2017-09-05T17:04:40.803Z,55
2017-09-05T17:05:42.471Z,50
2017-09-05T17:06:44.147Z,50
2017-09-05T17:07:47.561Z,55
2017-09-05T17:08:48.389Z,55
2017-09-05T17:09:50.685Z,55
2017-09-05T17:10:52.361Z,50
2017-09-05T17:11:54.014Z,45
2017-09-05T17:12:57.350Z,45
2017-09-05T17:13:59.022Z,40
2017-09-05T17:15:00.683Z,40
2017-09-05T17:16:02.358Z,40
2017-09-05T17:17:04.649Z,40
2017-09-05T17:18:07.288Z,45
2017-09-05T17:19:08.966Z,45
2017-09-05T17:20:10.635Z,40
2017-09-05T17:21:12.307Z,40
2017-09-05T17:22:13.971Z,40
2017-09-05T17:23:15.663Z,40
2017-09-05T17:24:18.136Z,35
2017-09-05T17:25:19.804Z,35
2017-09-05T17:26:21.468Z,30
2017-09-05T17:27:23.131Z,30
2017-09-05T17:28:26.551Z,30
2017-09-05T17:29:29.769Z,30
2017-09-05T17:30:31.445Z,30
2017-09-05T17:31:33.654Z,30
2017-09-05T17:32:36.569Z,30
2017-09-05T17:33:37.652Z,25
2017-09-05T17:34:39.335Z,25
2017-09-05T17:35:40.991Z,20
2017-09-05T17:36:42.665Z,20
2017-09-05T17:37:44.895Z,15
2017-09-05T17:38:46.570Z,15
2017-09-05T17:39:48.238Z,15
2017-09-05T17:40:50.823Z,10
2017-09-05T17:41:52.489Z,10
2017-09-05T17:42:54.848Z,10
2017-09-05T17:43:56.520Z,10
2017-09-05T17:44:58.183Z,10
2017-09-05T17:45:59.848Z,10
2017-09-05T17:47:01.508Z,10
2017-09-05T17:48:03.201Z,10
2017-09-05T17:49:06.418Z,10
2017-09-05T17:50:08.479Z,10
2017-09-05T17:51:10.527Z,10
2017-09-05T17:52:12.196Z,10
2017-09-05T17:53:14.430Z,10
2017-09-05T17:54:17.348Z,10
2017-09-05T17:55:19.027Z,5
2017-09-05T18:01:22.710Z,5
2017-09-05T18:02:24.370Z,5
2017-09-05T18:03:26.026Z,0
2017-09-05T18:04:28.357Z,0
2017-09-05T18:05:30.798Z,0
2017-09-05T18:06:32.452Z,0
2017-09-05T18:07:34.577Z,0
2017-09-05T18:08:37.021Z,0
2017-09-05T18:09:39.190Z,0
2017-09-05T18:10:41.613Z,0
2017-09-05T18:11:43.256Z,0
2017-09-05T18:12:44.928Z,0
2017-09-05T18:13:47.510Z,0
2017-09-05T18:14:49.184Z,0
2017-09-05T18:15:50.846Z,0